This is the latest recevied weather packets stored in our database for station/object N3SW-13. If no packets are shown the sender has not sent any weather packets the latest 10 day(s).
| Time | Temp. | Humidity | Pressure | Rain* | Wind** | Luminosity | Snow |
|---|---|---|---|---|---|---|---|
| 1777071622 | 22.78° C | 51% | 1007 hPa | 0 mm | - | - | - |
| 1777069813 | 23.33° C | 48% | 1007.1 hPa | 0 mm | - | - | - |
| 1777066208 | 23.89° C | 45% | 1007.2 hPa | 0 mm | - | - | - |
| 1777065311 | 23.89° C | 45% | 1007.2 hPa | 0 mm | - | - | - |
| 1777064407 | 24.44° C | 41% | 1007.2 hPa | 0 mm | - | - | - |
| 1777056351 | 28.89° C | 28% | 1008.2 hPa | 0 mm | - | - | - |
| 1777054543 | 28.33° C | 30% | 1008.4 hPa | 0 mm | - | - | - |
| 1777050934 | 27.22° C | 35% | 1009.2 hPa | 0 mm | - | - | - |
| 1777048224 | 25.56° C | 36% | 1009.8 hPa | 0 mm | - | - | - |
| 1777038357 | 18.33° C | 62% | 1011.4 hPa | 0 mm | - | - | - |
| 1777037449 | 17.78° C | 70% | 1011.5 hPa | 0 mm | - | - | - |
| 1777034749 | 15.56° C | 74% | 1011.9 hPa | 0 mm | - | - | - |
| 1777033843 | 14.44° C | 74% | 1011.8 hPa | 0 mm | - | - | - |
| 1777024826 | 15° C | 65% | 1011.2 hPa | 0 mm | - | - | - |
| 1777023928 | 15.56° C | 63% | 1011.1 hPa | 0 mm | - | - | - |
| 1777014910 | 16.67° C | 58% | 1010.8 hPa | 0 mm | - | - | - |
| 1777009567 | 17.78° C | 52% | 1011.2 hPa | 0 mm | - | - | - |
| 1777007753 | 18.33° C | 51% | 1011.6 hPa | 0 mm | - | - | - |
| 1776998742 | 20° C | 45% | 1012.3 hPa | 0 mm | - | - | - |
| 1776997839 | 20° C | 44% | 1012.4 hPa | 0 mm | - | - | - |
| 1776991534 | 22.22° C | 40% | 1012 hPa | 0 mm | - | - | - |
| 1776988834 | 23.89° C | 36% | 1011.8 hPa | 0 mm | - | - | - |
| 1776986136 | 25° C | 34% | 1011.5 hPa | 0 mm | - | - | - |
| 1776983436 | 26.67° C | 32% | 1011.5 hPa | 0 mm | - | - | - |
| 1776978021 | 27.78° C | 30% | 1011.7 hPa | 0 mm | - | - | - |
* Rain latest hour (hover to see other rain measurements)
** Current wind speed in m/s (hover to see current wind gust speed)